Flight Track Log - Related Links

Times and Time Zones

All times are in EDT time to prevent confusion due to time zone crossing. See the CTL17 flight status page for this flight to view local times or setup timezone preferences in your user account.

Time Position Orientation Groundspeed Altitude Reporting Facility
EDT Latitude Longitude Course Direction KTS MPH feet Rate Location/Type
Wed 06:54:24 PM 41.5792 -81.6989 347° North 145 167 2,200  Level Cleveland Center
Wed 06:55:24 PM 41.6122 -81.7328 323° Northwest 159 183 3,000 595 Climbing Cleveland Center
Wed 06:56:25 PM 41.6283 -81.7914 290° West 162 186 3,400 492 Climbing Cleveland Center
Wed 06:57:26 PM 41.6444 -81.8503 290° West 165 190 4,000 496 Climbing Cleveland Center
Wed 06:58:26 PM 41.6606 -81.9061 291° West 163 188 4,400 472 Climbing Cleveland Center
Wed 06:59:33 PM 41.6764 -81.9647 290° West 156 180 5,000 516 Climbing Cleveland Center
Wed 07:00:34 PM 41.6903 -82.0208 288° West 156 180 5,500 522 Climbing Cleveland Center
Wed 07:01:28 PM 41.7022 -82.0683 289° West 157 181 6,000 261 Climbing Cleveland Center
Wed 07:02:29 PM 41.7203 -82.1328 291° West 173 199 6,000  Level Cleveland Center
Wed 07:03:30 PM 41.7339 -82.1914 287° West 168 193 6,000  Level Cleveland Center
Wed 07:04:31 PM 41.7497 -82.2503 290° West 167 192 6,000  Level Cleveland Center
Wed 07:05:32 PM 41.7656 -82.3092 298° West 167 192 6,000  Level Cleveland Center
Wed 07:06:32 PM 41.7814 -82.3653 291° West 164 189 6,000  Level Cleveland Center
Wed 07:07:12 PM 41.7953 -82.4075 294° West 167 192 6,000  Level Cleveland Center
Wed 07:08:13 PM 41.8089 -82.4664 287° West 167 192 6,000  Level Cleveland Center
Wed 07:09:14 PM 41.8225 -82.5253 287° West 167 192 6,000  Level Cleveland Center
Wed 07:10:15 PM 41.8319 -82.5869 282° West 169 194 6,000  Level Cleveland Center
Wed 07:11:16 PM 41.8539 -82.6461 296° West 174 200 6,000 -98 Level Cleveland Center
Wed 07:12:17 PM 41.8950 -82.6753 332° Northwest 169 194 5,800 -344 Descending Cleveland Center
Wed 07:13:18 PM 41.9447 -82.6964 342° North 182 209 5,300 -393 Descending Cleveland Center
Wed 07:14:19 PM 41.9922 -82.7147 344° North 182 209 5,000 -148 Descending Cleveland Center
Wed 07:15:20 PM 42.0378 -82.7358 341° North 170 196 5,000  Level Cleveland Center
Wed 07:16:20 PM 42.0831 -82.7625 336° Northwest 170 196 5,000  Level Cleveland Center
Wed 07:17:21 PM 42.1286 -82.7808 343° North 172 198 5,000  Level Cleveland Center
Wed 07:18:23 PM 42.1761 -82.8022 342° North 168 193 5,000  Level Cleveland Center
Wed 07:19:23 PM 42.2217 -82.8178 346° North 168 193 5,000  Level Cleveland Center
Wed 07:20:30 PM 42.2694 -82.8281 351° North 161 185 5,000  Level Cleveland Center
Wed 07:21:31 PM 42.3150 -82.8381 351° North 160 184 5,000  Level Cleveland Center
Wed 07:22:32 PM 42.3564 -82.8619 337° Northwest 159 183 5,000  Level Cleveland Center
Wed 07:23:33 PM 42.3953 -82.8914 331° Northwest 159 183 5,000 -98 Level Cleveland Center
Wed 07:24:34 PM 42.4364 -82.9211 332° Northwest 162 186 4,800 -492 Descending Cleveland Center
Wed 07:25:35 PM 42.4772 -82.9647 322° Northwest 189 217 4,000 -393 Descending Cleveland Center
Wed 07:26:36 PM 42.5139 -83.0086 319° Northwest 173 199 4,000 -49 Level Cleveland Center
Wed 07:27:37 PM 42.5547 -83.0467 326° Northwest 167 192 3,900  Descending Cleveland Center
Wed 07:28:37 PM 42.5722 -83.1039 293° West 166 191 4,000 50 Climbing Cleveland Center
Wed 07:29:38 PM 42.5917 -83.1639 294° West 167 192 4,000 -49 Level Cleveland Center
Wed 07:30:39 PM 42.6092 -83.2181 294° West 168 193 3,900 -393 Descending Cleveland Center
Wed 07:31:40 PM 42.6097 -83.2858 271° West 187 215 3,200 -466 Descending Cleveland Center
Wed 07:32:35 PM 42.6083 -83.3450 268° West 180 207 3,000 -414 Descending Cleveland Center
Wed 07:33:36 PM 42.6069 -83.4100 268° West 179 206 2,400 -492 Descending Cleveland Center
Wed 07:34:37 PM 42.6242 -83.4644 293° West 152 175 2,000 -443 Descending Cleveland Center
Wed 07:35:38 PM 42.6619 -83.4603 North 118 136 1,500 -492 Descending Cleveland Center
Wed 07:37:00 PM 42.6656 -83.4205 83° East  Level Estimated
Wed 07:44:00 PM 42.6656 -83.4205 140° Southeast  Level Estimated
Wed 07:45:00 PM 42.6656 -83.4205 140° Southeast  Level Estimated

Login

Don't have an account? Register now (free) for customized features, flight alerts, and more!